Time;durP1;ratioP1;P1;durP2;ratioP2;P2;SDS_P1;SDS_P2;PMS_P1;PMS_P2;Temp;Humidity;BMP_temperature;BMP_pressure;BME280_temperature;BME280_humidity;BME280_pressure;Samples;Min_cycle;Max_cycle;Signal;HPM_P1;HPM_P2
2022/12/20 00:01:17;;;;;;;45.40;27.70;;;18.10;80.50;;;;;;1850552;77;21227;-82
2022/12/20 00:03:51;;;;;;;43.78;28.07;;;18.10;80.50;;;;;;1858172;76;21216;-83
2022/12/20 00:06:23;;;;;;;45.67;30.20;;;18.10;80.50;;;;;;1855897;77;21158;-82
2022/12/20 00:08:59;;;;;;;45.67;28.70;;;18.20;80.30;;;;;;1852843;77;21183;-82
2022/12/20 00:11:30;;;;;;;41.23;27.37;;;18.20;80.30;;;;;;1855018;77;21243;-86
2022/12/20 00:14:01;;;;;;;43.90;27.85;;;18.20;80.40;;;;;;1855906;76;21196;-82
2022/12/20 00:16:33;;;;;;;43.68;26.82;;;18.20;80.40;;;;;;1847144;77;21138;-83
2022/12/20 00:19:06;;;;;;;44.83;26.82;;;18.20;80.20;;;;;;1848982;76;21669;-83
2022/12/20 00:21:38;;;;;;;38.88;25.75;;;18.20;80.10;;;;;;1850256;77;21120;-83
2022/12/20 00:24:10;;;;;;;39.58;25.23;;;18.30;80.40;;;;;;1847190;77;21087;-83
2022/12/20 00:26:41;;;;;;;38.60;25.25;;;18.30;80.00;;;;;;1858640;77;21200;-82
2022/12/20 00:29:15;;;;;;;38.58;25.55;;;18.40;79.60;;;;;;1800410;78;21568;-84
2022/12/20 00:31:46;;;;;;;46.02;25.88;;;18.40;79.50;;;;;;1851712;77;21141;-82
2022/12/20 00:34:19;;;;;;;38.78;25.45;;;18.40;79.50;;;;;;1837680;77;21664;-85
2022/12/20 00:36:51;;;;;;;43.30;24.60;;;18.40;79.40;;;;;;1858723;77;21663;-84
2022/12/20 00:39:22;;;;;;;42.00;25.72;;;18.40;79.30;;;;;;1845704;77;21920;-83
2022/12/20 00:41:58;;;;;;;54.45;25.60;;;18.50;79.30;;;;;;1849947;77;21139;-82
2022/12/20 00:44:35;;;;;;;41.83;24.92;;;18.50;79.30;;;;;;1852357;76;21229;-82
2022/12/20 00:47:06;;;;;;;39.15;24.32;;;18.50;79.00;;;;;;1854375;77;21144;-81
2022/12/20 00:49:37;;;;;;;42.20;25.10;;;18.60;79.20;;;;;;1856135;77;21134;-83
2022/12/20 00:52:08;;;;;;;39.08;24.40;;;18.60;79.20;;;;;;1860196;76;21079;-83
2022/12/20 00:54:43;;;;;;;37.70;24.15;;;18.60;78.70;;;;;;1842715;77;21204;-84
2022/12/20 00:57:14;;;;;;;36.33;23.25;;;18.70;78.80;;;;;;1861087;76;21180;-83
2022/12/20 00:59:46;;;;;;;35.25;21.75;;;18.80;79.00;;;;;;1855907;75;21198;-82
2022/12/20 01:02:18;;;;;;;31.80;20.52;;;18.80;78.80;;;;;;1853823;76;21094;-81
2022/12/20 01:04:50;;;;;;;33.73;20.92;;;18.90;79.20;;;;;;1807916;78;21127;-72
2022/12/20 01:07:22;;;;;;;36.15;21.00;;;19.00;78.50;;;;;;1800905;79;21175;-71
2022/12/20 01:09:53;;;;;;;35.13;20.57;;;19.10;78.20;;;;;;1816732;77;21110;-71
2022/12/20 01:12:24;;;;;;;30.48;19.17;;;19.20;77.90;;;;;;1801865;79;21235;-73
2022/12/20 01:14:56;;;;;;;30.15;19.95;;;19.30;77.50;;;;;;1800994;79;21141;-72
2022/12/20 01:17:28;;;;;;;40.73;22.77;;;19.30;77.30;;;;;;1795701;79;22403;-71
2022/12/20 01:19:59;;;;;;;37.67;21.57;;;19.40;77.00;;;;;;1827761;77;21122;-72
2022/12/20 01:22:30;;;;;;;36.75;21.48;;;19.40;76.70;;;;;;1824949;77;21113;-72
2022/12/20 01:25:02;;;;;;;47.40;22.75;;;19.40;76.70;;;;;;1821163;77;21188;-72
2022/12/20 01:27:33;;;;;;;37.93;21.70;;;19.40;76.70;;;;;;1793517;78;21655;-73
2022/12/20 01:30:04;;;;;;;33.38;20.43;;;19.50;76.80;;;;;;1820238;77;21178;-72
2022/12/20 01:32:35;;;;;;;34.30;19.62;;;19.50;76.90;;;;;;1818504;77;21605;-71
2022/12/20 01:35:08;;;;;;;31.93;19.90;;;19.50;76.90;;;;;;1786659;79;21168;-71
2022/12/20 01:37:42;;;;;;;34.85;21.02;;;19.60;76.90;;;;;;1789792;80;21157;-71
2022/12/20 01:40:14;;;;;;;30.32;17.80;;;19.60;76.70;;;;;;1799753;79;21149;-71
2022/12/20 01:42:45;;;;;;;32.00;17.82;;;19.70;76.70;;;;;;1820266;77;21213;-73
2022/12/20 01:45:19;;;;;;;31.60;19.95;;;19.70;76.60;;;;;;1822940;77;21194;-72
2022/12/20 01:47:50;;;;;;;31.33;19.05;;;19.70;76.50;;;;;;1815018;78;21673;-72
2022/12/20 01:50:22;;;;;;;28.10;17.48;;;19.70;76.40;;;;;;1865872;76;21538;-71
2022/12/20 01:52:53;;;;;;;29.65;17.73;;;19.80;76.50;;;;;;1865393;76;21195;-73
2022/12/20 01:55:34;;;;;;;27.48;17.80;;;19.80;77.00;;;;;;1864117;75;21171;-74
2022/12/20 01:58:10;;;;;;;25.70;17.27;;;19.80;76.90;;;;;;1863513;77;21235;-72
2022/12/20 02:00:41;;;;;;;25.73;16.30;;;19.80;76.90;;;;;;1863722;75;21134;-72
2022/12/20 02:03:14;;;;;;;26.60;16.90;;;19.90;77.10;;;;;;1868437;76;21188;-73
2022/12/20 02:05:46;;;;;;;40.12;28.30;;;19.90;77.00;;;;;;1866787;76;21255;-73
2022/12/20 02:08:20;;;;;;;25.10;15.45;;;20.00;76.70;;;;;;1821753;77;21178;-73
2022/12/20 02:11:10;;;;;;;25.80;15.72;;;20.00;76.70;;;;;;1781536;79;21221;-73
2022/12/20 02:14:06;;;;;;;21.07;13.93;;;20.00;76.60;;;;;;1779557;79;21194;-74
2022/12/20 02:16:44;;;;;;;27.15;16.05;;;20.10;76.50;;;;;;1793599;78;21202;-74
2022/12/20 02:19:33;;;;;;;22.65;14.83;;;20.10;76.80;;;;;;1810945;78;21117;-72
2022/12/20 02:22:23;;;;;;;23.32;15.10;;;20.20;76.90;;;;;;1789634;79;22119;-73
2022/12/20 02:25:21;;;;;;;22.60;14.63;;;20.30;76.60;;;;;;1828668;77;21714;-72
2022/12/20 02:28:14;;;;;;;29.05;16.23;;;20.30;76.30;;;;;;1799199;79;21710;-74
2022/12/20 02:30:47;;;;;;;22.60;14.78;;;20.30;76.40;;;;;;1790341;79;21217;-71
2022/12/20 02:33:20;;;;;;;27.22;15.60;;;20.40;76.20;;;;;;1790582;80;21280;-73
2022/12/20 02:35:53;;;;;;;28.35;16.02;;;20.40;76.50;;;;;;1797376;77;21155;-74
2022/12/20 02:38:31;;;;;;;27.58;16.80;;;20.50;76.50;;;;;;1800820;77;21269;-74
2022/12/20 02:41:05;;;;;;;24.70;16.00;;;20.50;76.30;;;;;;1797037;78;21158;-73
2022/12/20 02:46:29;;;;;;;31.93;17.65;;;20.60;76.20;;;;;;1784726;78;21105;-74
2022/12/20 02:49:03;;;;;;;30.75;16.95;;;20.70;76.40;;;;;;1795987;77;21826;-73
2022/12/20 02:51:35;;;;;;;26.00;16.73;;;20.70;76.30;;;;;;1822027;77;21248;-74
2022/12/20 02:54:07;;;;;;;29.77;18.42;;;20.80;76.30;;;;;;1821693;76;21245;-73
2022/12/20 02:56:47;;;;;;;33.00;17.62;;;20.80;76.30;;;;;;1797468;78;21102;-73
2022/12/20 02:59:32;;;;;;;31.10;18.30;;;20.90;76.00;;;;;;1796069;78;21174;-72
2022/12/20 03:02:05;;;;;;;28.85;18.62;;;20.90;76.90;;;;;;1819789;76;21870;-74
2022/12/20 03:04:41;;;;;;;29.32;17.50;;;21.00;76.00;;;;;;1779853;78;21155;-72
2022/12/20 03:07:16;;;;;;;29.25;18.02;;;21.00;75.80;;;;;;1812053;77;21215;-72
2022/12/20 03:09:49;;;;;;;27.77;16.73;;;21.10;75.80;;;;;;1785815;78;21161;-73
2022/12/20 03:12:26;;;;;;;28.83;16.82;;;21.20;75.70;;;;;;1822458;76;21150;-72
2022/12/20 03:14:59;;;;;;;25.52;16.10;;;21.20;75.50;;;;;;1815072;77;21165;-70
2022/12/20 03:17:31;;;;;;;24.15;16.67;;;21.30;75.30;;;;;;1874892;75;21535;-72
2022/12/20 03:20:10;;;;;;;26.10;16.37;;;21.40;75.20;;;;;;1858739;75;21114;-72
2022/12/20 03:22:46;;;;;;;25.60;15.50;;;21.50;74.90;;;;;;1836694;76;21193;-73
2022/12/20 03:25:21;;;;;;;19.60;12.80;;;21.60;74.70;;;;;;1845000;77;21605;-72
2022/12/20 03:27:53;;;;;;;21.85;13.32;;;21.70;75.30;;;;;;1863044;74;21131;-73
2022/12/20 03:30:25;;;;;;;21.37;13.50;;;21.80;74.70;;;;;;1865579;75;21176;-72
2022/12/20 03:32:59;;;;;;;22.48;13.80;;;21.90;73.30;;;;;;1865223;75;21148;-72
2022/12/20 03:35:37;;;;;;;19.52;12.53;;;22.00;73.30;;;;;;1863929;74;21115;-73
2022/12/20 03:38:09;;;;;;;17.82;11.85;;;22.10;72.50;;;;;;1861039;75;21188;-72
2022/12/20 03:40:40;;;;;;;22.62;11.28;;;22.10;71.60;;;;;;1863061;75;21181;-72
2022/12/20 03:43:11;;;;;;;24.47;12.45;;;22.20;71.70;;;;;;1870403;74;21208;-72
2022/12/20 03:45:42;;;;;;;17.50;12.37;;;22.30;71.40;;;;;;1868772;75;21225;-72
2022/12/20 03:48:15;;;;;;;15.43;12.05;;;22.30;71.10;;;;;;1866690;74;21082;-72
2022/12/20 03:50:46;;;;;;;18.55;12.55;;;22.40;71.10;;;;;;1865212;75;21598;-72
2022/12/20 03:53:17;;;;;;;22.20;11.73;;;22.50;70.90;;;;;;1870193;74;21672;-72
2022/12/20 03:55:50;;;;;;;20.37;13.05;;;22.60;71.60;;;;;;1862955;75;21165;-73
2022/12/20 03:58:22;;;;;;;19.73;10.85;;;22.70;70.40;;;;;;1871221;75;21123;-73
2022/12/20 04:00:53;;;;;;;19.98;12.00;;;22.80;69.90;;;;;;1869623;75;21519;-73
2022/12/20 04:03:27;;;;;;;20.95;11.38;;;23.00;69.40;;;;;;1873515;75;21117;-73
2022/12/20 04:06:00;;;;;;;16.15;10.88;;;23.10;68.70;;;;;;1867931;75;21657;-73
2022/12/20 04:08:34;;;;;;;;;;;23.20;68.10;;;;;;1857074;75;21145;-73
2022/12/20 04:11:18;;;;;;;52.48;16.77;;;23.20;68.50;;;;;;1834198;75;20493;-72
2022/12/20 04:13:53;;;;;;;20.25;11.85;;;23.30;68.20;;;;;;1875715;75;21765;-73
2022/12/20 04:16:26;;;;;;;20.82;10.60;;;23.40;68.00;;;;;;1902645;73;21687;-72
2022/12/20 04:18:58;;;;;;;17.45;9.70;;;23.50;67.40;;;;;;1878525;75;21097;-72
2022/12/20 04:21:38;;;;;;;17.27;10.32;;;23.70;66.70;;;;;;1882137;75;21238;-71
2022/12/20 04:24:10;;;;;;;14.90;10.45;;;23.80;66.60;;;;;;1876587;74;21615;-72
2022/12/20 04:26:41;;;;;;;16.80;10.05;;;23.80;66.00;;;;;;1890627;75;21197;-72
2022/12/20 04:29:13;;;;;;;19.07;10.55;;;24.00;65.80;;;;;;1898924;74;21170;-72
2022/12/20 04:31:44;;;;;;;15.28;8.78;;;24.10;65.50;;;;;;1887350;75;21127;-73
2022/12/20 04:34:16;;;;;;;15.83;8.10;;;24.20;64.60;;;;;;1893637;75;21191;-72
2022/12/20 04:36:47;;;;;;;15.98;9.13;;;24.30;63.70;;;;;;1895321;75;21188;-72
2022/12/20 04:39:19;;;;;;;11.10;8.10;;;24.40;63.70;;;;;;1895092;75;21092;-73
2022/12/20 04:41:50;;;;;;;13.40;8.58;;;24.50;63.40;;;;;;1895479;75;22358;-72
2022/12/20 04:44:22;;;;;;;12.25;8.78;;;24.60;62.90;;;;;;1855199;75;21064;-71
2022/12/20 04:46:54;;;;;;;16.00;9.00;;;24.60;62.90;;;;;;1891317;75;21101;-71
2022/12/20 04:49:27;;;;;;;14.73;8.73;;;24.70;62.90;;;;;;1908353;75;21215;-70
2022/12/20 04:53:46;;;;;;;16.90;8.68;;;24.70;62.50;;;;;;1908385;75;21077;-71
2022/12/20 04:54:32;;;;;;;16.65;8.70;;;24.80;62.00;;;;;;1872820;76;21098;-73
2022/12/20 04:57:08;;;;;;;14.00;9.13;;;24.90;61.80;;;;;;1880066;75;21135;-70
2022/12/20 04:59:40;;;;;;;14.45;9.53;;;24.90;61.90;;;;;;1888676;75;21126;-71
2022/12/20 05:02:12;;;;;;;17.05;9.25;;;25.00;61.50;;;;;;1885232;75;21187;-71
2022/12/20 05:04:44;;;;;;;20.40;10.48;;;25.10;61.70;;;;;;1885217;75;21635;-70
2022/12/20 05:07:15;;;;;;;15.68;9.45;;;25.10;61.50;;;;;;1899909;75;21697;-72
2022/12/20 05:10:00;;;;;;;13.53;8.18;;;25.20;61.30;;;;;;1868182;75;21104;-71
2022/12/20 05:12:33;;;;;;;16.90;8.78;;;25.30;60.70;;;;;;1880504;75;21117;-72
2022/12/20 05:15:04;;;;;;;15.30;9.35;;;25.30;60.10;;;;;;1885037;74;21077;-71
2022/12/20 05:17:36;;;;;;;12.10;8.08;;;25.40;60.20;;;;;;1892133;75;21193;-71
2022/12/20 05:20:14;;;;;;;12.33;8.78;;;25.50;60.00;;;;;;1893474;74;21141;-72
2022/12/20 05:28:24;;;;;;;11.38;8.15;;;25.70;59.40;;;;;;1818533;77;21194;-74
2022/12/20 05:31:00;;;;;;;14.07;8.83;;;25.70;59.20;;;;;;1867770;75;21227;-71
2022/12/20 05:33:34;;;;;;;14.33;9.08;;;25.70;59.00;;;;;;1879449;75;21184;-71
2022/12/20 05:36:06;;;;;;;13.93;8.85;;;25.80;59.00;;;;;;1881407;75;21278;-72
2022/12/20 05:38:38;;;;;;;11.95;8.70;;;25.80;59.00;;;;;;1873980;75;21144;-70
2022/12/20 05:41:09;;;;;;;16.25;9.18;;;25.80;59.30;;;;;;1869373;75;21178;-70
2022/12/20 05:43:41;;;;;;;14.07;8.95;;;25.90;58.30;;;;;;1856143;77;21609;-72
2022/12/20 05:46:12;;;;;;;13.93;8.75;;;26.00;58.60;;;;;;1851635;76;21125;-72
2022/12/20 05:48:47;;;;;;;14.58;8.40;;;26.00;58.30;;;;;;1811074;78;21156;-71
2022/12/20 05:51:18;;;;;;;13.58;9.13;;;26.00;58.10;;;;;;1884398;75;21202;-71
2022/12/20 05:53:49;;;;;;;14.53;9.08;;;26.00;58.40;;;;;;1817648;78;21222;-72
2022/12/20 05:56:20;;;;;;;13.70;9.28;;;26.00;58.40;;;;;;1826384;78;21107;-70
2022/12/20 05:58:53;;;;;;;17.40;9.93;;;26.00;58.30;;;;;;1788634;78;21152;-70
2022/12/20 06:01:24;;;;;;;16.77;9.63;;;26.00;58.30;;;;;;1886017;75;21784;-72
2022/12/20 06:03:56;;;;;;;18.92;10.18;;;26.10;58.10;;;;;;1826597;77;21110;-72
2022/12/20 06:06:28;;;;;;;13.05;9.98;;;26.20;57.70;;;;;;1884315;75;21620;-72
2022/12/20 06:09:09;;;;;;;19.77;9.80;;;26.10;58.30;;;;;;1889028;74;21264;-72
2022/12/20 06:11:38;;;;;;;14.53;8.73;;;26.20;58.20;;;;;;1848309;75;21602;-73
2022/12/20 06:14:10;;;;;;;16.35;9.45;;;26.30;58.10;;;;;;1836885;75;21185;-72
2022/12/20 06:16:42;;;;;;;13.35;9.33;;;26.30;57.90;;;;;;1835946;75;22104;-71
2022/12/20 06:19:14;;;;;;;13.75;9.40;;;26.30;57.90;;;;;;1838370;75;21147;-73
2022/12/20 06:21:50;;;;;;;14.55;9.08;;;26.30;57.70;;;;;;1871424;74;21243;-71
2022/12/20 06:24:24;;;;;;;12.58;8.43;;;26.30;58.00;;;;;;1873828;75;21256;-71
2022/12/20 06:26:55;;;;;;;17.07;9.13;;;26.30;57.80;;;;;;1864209;75;21157;-74
2022/12/20 06:29:50;;;;;;;19.20;10.32;;;26.30;57.50;;;;;;1877519;75;21688;-73
2022/12/20 06:32:20;;;;;;;15.53;10.03;;;26.30;57.50;;;;;;1880817;75;21226;-73
2022/12/20 06:34:54;;;;;;;19.50;9.95;;;26.30;57.60;;;;;;1858699;75;21645;-73
2022/12/20 06:37:26;;;;;;;18.52;10.58;;;26.30;57.30;;;;;;1882671;75;21116;-71
2022/12/20 06:42:50;;;;;;;20.32;9.30;;;26.30;56.80;;;;;;1916484;73;21214;-74
2022/12/20 06:45:22;;;;;;;13.20;9.25;;;26.30;56.60;;;;;;1902865;73;21086;-72
2022/12/20 06:47:53;;;;;;;14.93;9.10;;;26.40;56.90;;;;;;1846706;76;21119;-71
2022/12/20 06:50:25;;;;;;;17.20;9.75;;;26.40;56.90;;;;;;1903114;73;21156;-73
2022/12/20 06:52:56;;;;;;;16.05;9.38;;;26.40;58.00;;;;;;1840988;77;21118;-73
2022/12/20 06:55:28;;;;;;;15.63;10.05;;;26.50;56.80;;;;;;1898042;73;21211;-73
2022/12/20 06:57:59;;;;;;;14.35;10.18;;;26.50;56.40;;;;;;1907206;73;21081;-72
2022/12/20 07:00:30;;;;;;;20.70;10.25;;;26.50;56.20;;;;;;1883565;73;21179;-73
2022/12/20 07:03:01;;;;;;;18.05;9.53;;;26.50;56.20;;;;;;1895478;74;21113;-73
2022/12/20 07:05:32;;;;;;;16.50;9.68;;;26.50;56.10;;;;;;1892637;74;21599;-72
2022/12/20 07:08:04;;;;;;;14.00;8.48;;;26.50;56.10;;;;;;1834850;77;21057;-72
2022/12/20 07:10:37;;;;;;;15.98;8.88;;;26.60;56.20;;;;;;1889425;72;21210;-73
2022/12/20 07:13:08;;;;;;;13.95;9.73;;;26.50;56.00;;;;;;1908246;73;21060;-72
2022/12/20 07:15:40;;;;;;;16.77;10.00;;;26.50;56.00;;;;;;1904108;74;21838;-72
2022/12/20 07:18:12;;;;;;;17.37;9.30;;;26.50;55.90;;;;;;1899510;73;21173;-71
2022/12/20 07:20:43;;;;;;;14.35;9.63;;;26.60;56.00;;;;;;1845705;77;21728;-71
2022/12/20 07:23:15;;;;;;;14.63;8.80;;;26.50;55.90;;;;;;1886470;74;21085;-71
2022/12/20 07:25:54;;;;;;;14.45;9.35;;;26.50;55.70;;;;;;1894304;75;21211;-72
2022/12/20 07:28:26;;;;;;;15.58;8.23;;;26.50;56.20;;;;;;1837477;77;21212;-73
2022/12/20 07:31:00;;;;;;;16.93;10.45;;;26.60;55.70;;;;;;1895396;75;21140;-71
2022/12/20 07:33:31;;;;;;;14.90;8.95;;;26.60;55.70;;;;;;1901150;74;21591;-72
2022/12/20 07:36:05;;;;;;;16.35;8.80;;;26.60;55.50;;;;;;1894063;74;21144;-73
2022/12/20 07:38:37;;;;;;;18.77;10.58;;;26.60;55.60;;;;;;1842881;77;21631;-72
2022/12/20 07:41:19;;;;;;;15.25;8.93;;;26.60;55.90;;;;;;1886238;75;21139;-71
2022/12/20 07:43:51;;;;;;;15.40;9.20;;;26.60;55.80;;;;;;1843315;77;21350;-70
2022/12/20 07:46:25;;;;;;;16.12;9.33;;;26.60;56.00;;;;;;1900457;75;21089;-69
2022/12/20 07:48:57;;;;;;;15.80;8.93;;;26.70;55.50;;;;;;1848978;77;21091;-72
2022/12/20 07:51:35;;;;;;;17.92;10.55;;;26.60;55.50;;;;;;1844662;77;21666;-73
2022/12/20 07:54:40;;;;;;;17.48;9.28;;;26.70;55.80;;;;;;1894982;75;21208;-72
2022/12/20 07:57:19;;;;;;;15.95;9.68;;;26.60;55.90;;;;;;1841859;77;21170;-72
2022/12/20 07:59:53;;;;;;;23.38;10.65;;;26.60;56.00;;;;;;1825389;77;21173;-72
2022/12/20 08:02:29;;;;;;;15.98;9.88;;;26.60;55.90;;;;;;1853444;76;21103;-72
2022/12/20 08:07:54;;;;;;;17.98;10.98;;;26.60;55.80;;;;;;1803140;78;21205;-72
2022/12/20 08:10:27;;;;;;;21.33;9.75;;;26.60;55.50;;;;;;1846056;75;21661;-73
2022/12/20 08:12:59;;;;;;;14.33;9.08;;;26.50;55.70;;;;;;1839733;76;21123;-72
2022/12/20 08:15:31;;;;;;;15.38;9.25;;;26.50;55.80;;;;;;1836693;76;21136;-71
2022/12/20 08:18:05;;;;;;;18.50;9.35;;;26.50;55.60;;;;;;1839021;76;21157;-71
2022/12/20 08:20:36;;;;;;;14.85;9.98;;;26.50;55.70;;;;;;1842878;76;21951;-70
2022/12/20 08:23:07;;;;;;;17.02;11.55;;;26.50;55.80;;;;;;1842499;76;21147;-69
2022/12/20 08:25:39;;;;;;;16.48;9.90;;;26.50;56.00;;;;;;1877563;76;21140;-71
2022/12/20 08:28:17;;;;;;;21.48;10.68;;;26.50;55.80;;;;;;1856251;76;21545;-71
2022/12/20 08:30:48;;;;;;;18.77;9.40;;;26.50;55.90;;;;;;1842095;76;21230;-71
2022/12/20 08:33:48;;;;;;;16.77;9.63;;;26.50;56.00;;;;;;1835773;76;21141;-73
2022/12/20 08:36:22;;;;;;;16.25;10.00;;;26.50;55.90;;;;;;1957800;72;21135;-72
2022/12/20 08:38:53;;;;;;;14.87;10.05;;;26.40;56.00;;;;;;1915856;73;21176;-74
2022/12/20 08:41:29;;;;;;;14.15;9.13;;;26.40;56.20;;;;;;1907317;73;21151;-72
2022/12/20 08:43:57;;;;;;;19.15;10.30;;;26.40;56.20;;;;;;1901301;74;21167;-73
2022/12/20 08:46:28;;;;;;;19.02;10.35;;;26.40;56.00;;;;;;1921957;73;21096;-73
2022/12/20 08:49:00;;;;;;;16.62;10.10;;;26.40;56.20;;;;;;1906417;74;21243;-71
2022/12/20 08:51:31;;;;;;;18.27;9.85;;;26.40;56.30;;;;;;1930911;74;21147;-71
2022/12/20 08:54:07;;;;;;;16.10;9.63;;;26.40;56.20;;;;;;1910143;74;21229;-71
2022/12/20 08:56:38;;;;;;;;;;;26.30;56.30;;;;;;1884016;75;21178;-72
2022/12/20 08:59:12;;;;;;;15.88;9.10;;;26.30;56.50;;;;;;1927628;73;20235;-74
2022/12/20 09:01:43;;;;;;;13.40;9.45;;;26.30;56.90;;;;;;1946537;72;21566;-73
2022/12/20 09:04:16;;;;;;;14.60;8.80;;;26.30;57.60;;;;;;1944019;72;21094;-75
2022/12/20 09:06:48;;;;;;;13.80;9.03;;;26.30;57.50;;;;;;1916422;74;21180;-75
2022/12/20 09:09:19;;;;;;;16.55;9.85;;;26.30;57.00;;;;;;1899763;74;21093;-75
2022/12/20 09:11:50;;;;;;;15.88;10.28;;;26.30;56.80;;;;;;1933891;72;21183;-75
2022/12/20 09:14:22;;;;;;;15.48;9.70;;;26.30;56.80;;;;;;1930367;73;21152;-74
2022/12/20 09:16:53;;;;;;;17.00;10.05;;;26.30;56.90;;;;;;1975124;71;21121;-75
2022/12/20 09:19:24;;;;;;;16.32;9.93;;;26.30;56.60;;;;;;1975175;71;21173;-78
2022/12/20 09:21:55;;;;;;;16.32;10.28;;;26.30;57.20;;;;;;1973261;71;21209;-74
2022/12/20 09:24:31;;;;;;;;;;;26.20;57.40;;;;;;1981674;71;21563;-73
2022/12/20 09:27:02;;;;;;;18.82;11.30;;;26.20;57.40;;;;;;1975271;71;20179;-71
2022/12/20 09:29:36;;;;;;;19.70;11.40;;;26.20;57.60;;;;;;1981722;71;21124;-71
2022/12/20 09:32:07;;;;;;;14.33;10.15;;;26.10;57.70;;;;;;1973409;71;21080;-73
2022/12/20 09:34:39;;;;;;;19.02;11.00;;;26.10;57.90;;;;;;1967201;71;21080;-70
2022/12/20 09:37:10;;;;;;;22.32;12.33;;;26.00;57.60;;;;;;1972027;71;21153;-71
2022/12/20 09:39:41;;;;;;;17.35;10.75;;;26.10;57.80;;;;;;1974081;71;21111;-71
2022/12/20 09:42:15;;;;;;;22.67;11.88;;;26.00;57.90;;;;;;1967641;71;21161;-70
2022/12/20 09:44:46;;;;;;;16.65;10.90;;;26.00;57.90;;;;;;1956178;71;21163;-72
2022/12/20 09:47:19;;;;;;;18.75;12.23;;;26.00;58.00;;;;;;1912960;73;21116;-69
2022/12/20 09:49:53;;;;;;;18.05;12.10;;;26.00;58.00;;;;;;1889428;73;21147;-71
2022/12/20 09:52:57;;;;;;;18.90;11.63;;;25.90;58.20;;;;;;1973617;72;21112;-71
2022/12/20 09:55:33;;;;;;;17.73;10.65;;;25.90;58.10;;;;;;1984993;71;21108;-72
2022/12/20 09:58:23;;;;;;;23.25;14.85;;;25.80;58.10;;;;;;1973418;71;21277;-71
2022/12/20 10:00:54;;;;;;;15.40;10.50;;;25.80;58.40;;;;;;1975939;71;21139;-71
2022/12/20 10:03:28;;;;;;;14.95;10.88;;;25.70;58.10;;;;;;1969495;72;21235;-70
2022/12/20 10:06:01;;;;;;;19.55;11.60;;;25.70;58.30;;;;;;1970099;71;21139;-71
2022/12/20 10:09:00;;;;;;;16.85;10.45;;;25.60;58.30;;;;;;2003521;71;21092;-71
2022/12/20 10:11:55;;;;;;;20.10;11.90;;;25.60;58.30;;;;;;1986950;71;21182;-71
2022/12/20 10:14:41;;;;;;;20.30;11.33;;;25.60;58.50;;;;;;1992972;71;21108;-72
2022/12/20 10:17:18;;;;;;;22.43;12.40;;;25.60;58.50;;;;;;1971041;71;21554;-71
2022/12/20 10:19:51;;;;;;;22.20;11.73;;;25.50;58.70;;;;;;1991164;71;21700;-72
2022/12/20 10:22:32;;;;;;;22.15;12.15;;;25.50;58.90;;;;;;1912308;74;21171;-70
2022/12/20 10:25:14;;;;;;;19.48;12.20;;;25.40;58.90;;;;;;1914795;73;21067;-70
2022/12/20 10:27:47;;;;;;;19.17;12.23;;;25.30;59.00;;;;;;1899523;73;21669;-71
2022/12/20 10:30:21;;;;;;;22.60;13.83;;;25.30;59.20;;;;;;1903870;73;21215;-71
2022/12/20 10:32:54;;;;;;;21.20;12.73;;;25.20;59.10;;;;;;1923454;73;21149;-71
2022/12/20 10:35:31;;;;;;;25.45;13.50;;;25.30;59.20;;;;;;1916528;73;21127;-71
2022/12/20 10:38:07;;;;;;;21.80;13.28;;;25.20;59.90;;;;;;1906310;73;21146;-71
2022/12/20 10:40:41;;;;;;;27.50;14.35;;;25.20;59.20;;;;;;1909488;73;21658;-72
2022/12/20 10:43:22;;;;;;;24.85;13.05;;;25.20;59.40;;;;;;1900620;73;21480;-72
2022/12/20 10:46:04;;;;;;;22.37;13.22;;;25.10;59.20;;;;;;1907410;73;21129;-71
2022/12/20 10:48:38;;;;;;;20.60;13.35;;;25.10;59.30;;;;;;1899176;73;21245;-71
2022/12/20 10:51:14;;;;;;;25.55;12.93;;;25.10;59.40;;;;;;1902014;73;21328;-71
2022/12/20 10:54:00;;;;;;;27.48;14.98;;;25.00;59.30;;;;;;1890872;75;21640;-71
2022/12/20 10:56:39;;;;;;;29.45;14.80;;;25.00;59.40;;;;;;1909746;73;21057;-71
2022/12/20 10:59:22;;;;;;;30.57;15.40;;;24.90;59.60;;;;;;1867180;75;21112;-71
2022/12/20 11:01:55;;;;;;;25.52;14.83;;;24.90;59.80;;;;;;1870477;75;21166;-72
2022/12/20 11:04:37;;;;;;;24.57;15.43;;;24.90;59.90;;;;;;1902055;75;21551;-72
2022/12/20 11:07:26;;;;;;;32.65;16.00;;;24.80;59.80;;;;;;1897637;74;21080;-71
2022/12/20 11:10:09;;;;;;;31.93;15.85;;;24.80;60.20;;;;;;1875489;75;21567;-70
2022/12/20 11:12:35;;;;;;;27.73;16.23;;;24.80;60.20;;;;;;1853174;76;21493;-71
2022/12/20 11:15:26;;;;;;;42.62;17.15;;;24.70;60.20;;;;;;1896808;75;21560;-72
2022/12/20 11:18:04;;;;;;;30.25;16.62;;;24.70;60.50;;;;;;1905193;73;21161;-71
2022/12/20 11:20:40;;;;;;;29.20;16.60;;;24.70;60.50;;;;;;1904650;73;21674;-72
2022/12/20 11:23:20;;;;;;;31.05;18.27;;;24.60;60.50;;;;;;1897814;75;21159;-70
2022/12/20 11:26:08;;;;;;;33.55;19.35;;;24.60;60.60;;;;;;1867370;75;21084;-72
2022/12/20 11:29:01;;;;;;;31.95;20.48;;;24.60;60.70;;;;;;1909944;73;21130;-71
2022/12/20 11:31:53;;;;;;;31.15;18.95;;;24.60;60.70;;;;;;1931919;73;21131;-72
2022/12/20 11:34:29;;;;;;;33.18;18.32;;;24.50;60.70;;;;;;1898578;74;21107;-70
2022/12/20 11:37:14;;;;;;;33.83;19.50;;;24.50;60.90;;;;;;1913297;73;21106;-71
2022/12/20 11:39:50;;;;;;;34.40;18.87;;;24.40;61.10;;;;;;1908621;75;21192;-73
2022/12/20 11:42:39;;;;;;;36.20;19.60;;;24.40;61.00;;;;;;1912532;74;21125;-71
2022/12/20 11:45:22;;;;;;;32.10;18.25;;;24.40;61.10;;;;;;1911092;74;21472;-73
2022/12/20 11:48:08;;;;;;;29.40;19.37;;;24.30;61.00;;;;;;1914954;75;21113;-72
2022/12/20 11:53:53;;;;;;;31.77;18.25;;;24.30;61.40;;;;;;1784225;80;21181;-71
2022/12/20 11:56:35;;;;;;;35.20;19.67;;;24.30;61.30;;;;;;1803124;79;21149;-72
2022/12/20 11:59:25;;;;;;;33.45;19.65;;;24.20;61.40;;;;;;1755767;81;21259;-71
2022/12/20 12:01:57;;;;;;;35.52;19.55;;;24.20;61.40;;;;;;1785719;77;21636;-72
2022/12/20 12:04:32;;;;;;;38.53;20.02;;;24.20;62.30;;;;;;1815624;77;21753;-72
2022/12/20 12:07:14;;;;;;;32.35;19.67;;;24.10;61.80;;;;;;1778395;79;21165;-71
2022/12/20 12:10:10;;;;;;;35.03;18.85;;;24.10;61.80;;;;;;1781693;80;21169;-70
2022/12/20 12:12:46;;;;;;;31.73;18.87;;;24.10;61.70;;;;;;1785057;78;21690;-71
2022/12/20 12:15:21;;;;;;;33.00;17.82;;;24.10;61.60;;;;;;1777669;80;21208;-72
2022/12/20 12:18:17;;;;;;;32.95;17.60;;;24.10;61.50;;;;;;1782687;79;21163;-70
2022/12/20 12:23:59;;;;;;;34.10;18.05;;;24.10;61.10;;;;;;1873883;74;21083;-72
2022/12/20 12:26:32;;;;;;;33.37;18.00;;;24.10;61.30;;;;;;1884186;75;21158;-72
2022/12/20 12:29:12;;;;;;;30.05;17.70;;;24.10;61.30;;;;;;1881611;75;21625;-71
2022/12/20 12:31:51;;;;;;;29.32;18.17;;;24.10;61.30;;;;;;1871029;75;21527;-70
2022/12/20 12:34:41;;;;;;;34.65;18.02;;;24.00;61.30;;;;;;1789108;78;21220;-72
2022/12/20 12:37:45;;;;;;;29.80;17.85;;;24.00;61.40;;;;;;1817254;76;21726;-72
2022/12/20 12:40:50;;;;;;;36.17;19.37;;;24.00;61.20;;;;;;1793831;78;21194;-72
2022/12/20 12:43:36;;;;;;;29.12;20.27;;;24.00;61.70;;;;;;1803710;78;21178;-72
2022/12/20 12:46:19;;;;;;;32.00;20.65;;;23.90;62.00;;;;;;1800426;78;21733;-72
2022/12/20 12:49:10;;;;;;;31.85;19.07;;;23.90;62.00;;;;;;1800497;78;21705;-73
2022/12/20 12:51:44;;;;;;;34.80;19.75;;;23.90;62.20;;;;;;1795506;78;21190;-71
2022/12/20 12:54:20;;;;;;;36.33;19.32;;;23.80;62.40;;;;;;1796385;78;21595;-72
2022/12/20 12:56:52;;;;;;;33.45;19.35;;;23.80;62.60;;;;;;1797411;78;21163;-71
2022/12/20 12:59:38;;;;;;;29.67;19.57;;;23.80;62.90;;;;;;1795234;78;21701;-73
2022/12/20 13:02:19;;;;;;;34.98;18.52;;;23.70;62.80;;;;;;1796415;78;21190;-71
2022/12/20 13:05:03;;;;;;;33.00;19.05;;;23.70;62.90;;;;;;1790792;78;21111;-71
2022/12/20 13:07:45;;;;;;;34.30;19.52;;;23.70;63.00;;;;;;1793415;78;21627;-72
2022/12/20 13:10:19;;;;;;;33.25;19.00;;;23.70;63.20;;;;;;1764554;79;21214;-72
2022/12/20 13:12:54;;;;;;;33.10;20.12;;;23.70;63.20;;;;;;1821929;77;21091;-72
2022/12/20 13:15:31;;;;;;;30.92;20.23;;;23.70;63.40;;;;;;1834867;76;21145;-71
2022/12/20 13:18:15;;;;;;;31.00;19.27;;;23.60;63.40;;;;;;1832428;76;21515;-71
2022/12/20 13:20:48;;;;;;;40.43;20.45;;;23.60;63.50;;;;;;1833788;76;21218;-71
2022/12/20 13:23:21;;;;;;;38.73;21.10;;;23.60;63.50;;;;;;1784858;78;21580;-72
2022/12/20 13:25:53;;;;;;;34.78;20.27;;;23.50;63.50;;;;;;1787208;79;21205;-71
2022/12/20 13:28:29;;;;;;;37.17;20.65;;;23.60;63.80;;;;;;1784030;79;21149;-71
2022/12/20 13:31:05;;;;;;;30.15;18.85;;;23.50;63.90;;;;;;1781305;79;21178;-72
2022/12/20 13:33:42;;;;;;;32.35;19.75;;;23.50;64.00;;;;;;1781414;79;21205;-73